sensor_id;sensor_type;location;lat;lon;timestamp;pressure;altitude;pressure_sealevel;temperature;humidity
57799;BME280;43626;53.866;30.298;2024-02-21T00:00:03;1023.6;;;0.5;65.1
57799;BME280;43626;53.866;30.298;2024-02-21T00:05:03;1023.6;;;0.5;65.2
57799;BME280;43626;53.866;30.298;2024-02-21T00:09:48;1023.6;;;0.5;65.2
57799;BME280;43626;53.866;30.298;2024-02-21T00:15:03;1023.5;;;0.5;65.3
57799;BME280;43626;53.866;30.298;2024-02-21T00:19:10;1023.5;;;0.5;65.3
57799;BME280;43626;53.866;30.298;2024-02-21T00:24:10;1023.5;;;0.5;65.4
57799;BME280;43626;53.866;30.298;2024-02-21T00:29:26;1023.5;;;0.6;65.2
57799;BME280;43626;53.866;30.298;2024-02-21T00:34:22;1023.4;;;0.5;65.3
57799;BME280;43626;53.866;30.298;2024-02-21T00:39:36;1023.4;;;0.5;65.3
57799;BME280;43626;53.866;30.298;2024-02-21T00:44:33;1023.4;;;0.5;65.4
57799;BME280;43626;53.866;30.298;2024-02-21T00:49:18;1023.3;;;0.6;65.3
57799;BME280;43626;53.866;30.298;2024-02-21T00:55:01;1023.3;;;0.6;65.1
57799;BME280;43626;53.866;30.298;2024-02-21T00:59:46;1023.2;;;0.6;65
57799;BME280;43626;53.866;30.298;2024-02-21T01:04:18;1023.2;;;0.6;64.8
57799;BME280;43626;53.866;30.298;2024-02-21T01:09:11;1023.2;;;0.6;64.8
57799;BME280;43626;53.866;30.298;2024-02-21T01:14:40;1023.2;;;0.7;64.8
57799;BME280;43626;53.866;30.298;2024-02-21T01:19:51;1023.2;;;0.8;64.7
57799;BME280;43626;53.866;30.298;2024-02-21T01:24:18;1023.2;;;0.8;64.6
57799;BME280;43626;53.866;30.298;2024-02-21T01:29:50;1023.1;;;0.8;64.6
57799;BME280;43626;53.866;30.298;2024-02-21T01:34:12;1023.1;;;0.8;64.5
57799;BME280;43626;53.866;30.298;2024-02-21T01:40:03;1023.1;;;0.8;64.3
57799;BME280;43626;53.866;30.298;2024-02-21T01:44:49;1023.1;;;0.8;64.3
57799;BME280;43626;53.866;30.298;2024-02-21T01:50:03;1023;;;0.8;64.1
57799;BME280;43626;53.866;30.298;2024-02-21T01:54:19;1023;;;0.8;64.1
57799;BME280;43626;53.866;30.298;2024-02-21T01:59:11;1023;;;0.8;64.2
57799;BME280;43626;53.866;30.298;2024-02-21T02:04:19;1023;;;0.8;64
57799;BME280;43626;53.866;30.298;2024-02-21T02:09:30;1023;;;0.8;64.1
57799;BME280;43626;53.866;30.298;2024-02-21T02:14:11;1023;;;0.8;64.2
57799;BME280;43626;53.866;30.298;2024-02-21T02:19:40;1023;;;0.9;64.1
57799;BME280;43626;53.866;30.298;2024-02-21T02:24:11;1023.1;;;0.9;64.1
57799;BME280;43626;53.866;30.298;2024-02-21T02:30:00;1023;;;0.9;64
57799;BME280;43626;53.866;30.298;2024-02-21T02:34:46;1023;;;0.9;63.9
57799;BME280;43626;53.866;30.298;2024-02-21T02:39:27;1023.1;;;0.9;63.8
57799;BME280;43626;53.866;30.298;2024-02-21T02:44:39;1023.1;;;0.9;63.8
57799;BME280;43626;53.866;30.298;2024-02-21T02:49:41;1023.1;;;0.9;63.7
57799;BME280;43626;53.866;30.298;2024-02-21T02:55:03;1023.1;;;0.9;63.6
57799;BME280;43626;53.866;30.298;2024-02-21T02:59:31;1023.1;;;0.9;63.6
57799;BME280;43626;53.866;30.298;2024-02-21T03:04:29;1023.1;;;0.9;63.7
57799;BME280;43626;53.866;30.298;2024-02-21T03:09:21;1023.1;;;0.9;63.8
57799;BME280;43626;53.866;30.298;2024-02-21T03:15:01;1023.1;;;0.9;63.8
57799;BME280;43626;53.866;30.298;2024-02-21T03:19:51;1023.2;;;1;63.8
57799;BME280;43626;53.866;30.298;2024-02-21T03:24:51;1023.2;;;1;63.8
57799;BME280;43626;53.866;30.298;2024-02-21T03:29:37;1023.2;;;1;63.9
57799;BME280;43626;53.866;30.298;2024-02-21T03:34:11;1023.2;;;1;63.9
57799;BME280;43626;53.866;30.298;2024-02-21T03:39:37;1023.2;;;1;64
57799;BME280;43626;53.866;30.298;2024-02-21T03:44:11;1023.1;;;1;63.9
57799;BME280;43626;53.866;30.298;2024-02-21T03:49:43;1023.1;;;1;63.9
57799;BME280;43626;53.866;30.298;2024-02-21T03:54:43;1023.2;;;1;64.1
57799;BME280;43626;53.866;30.298;2024-02-21T03:59:50;1023.2;;;1;64.1
57799;BME280;43626;53.866;30.298;2024-02-21T04:05:01;1023.2;;;1;64.1
57799;BME280;43626;53.866;30.298;2024-02-21T04:10:01;1023.2;;;1;64
57799;BME280;43626;53.866;30.298;2024-02-21T04:14:21;1023.2;;;1.1;64
57799;BME280;43626;53.866;30.298;2024-02-21T04:19:43;1023.2;;;1.1;63.9
57799;BME280;43626;53.866;30.298;2024-02-21T04:25:03;1023.3;;;1.1;63.8
57799;BME280;43626;53.866;30.298;2024-02-21T04:29:51;1023.3;;;1.1;63.8
57799;BME280;43626;53.866;30.298;2024-02-21T04:34:19;1023.2;;;1.1;63.8
57799;BME280;43626;53.866;30.298;2024-02-21T04:39:13;1023.2;;;1.1;63.7
57799;BME280;43626;53.866;30.298;2024-02-21T04:44:23;1023.3;;;1.1;63.7
57799;BME280;43626;53.866;30.298;2024-02-21T04:50:01;1023.3;;;1.1;63.5
57799;BME280;43626;53.866;30.298;2024-02-21T04:54:29;1023.4;;;1;63.5
57799;BME280;43626;53.866;30.298;2024-02-21T05:00:01;1023.4;;;1;63.5
57799;BME280;43626;53.866;30.298;2024-02-21T05:04:19;1023.4;;;1;63.6
57799;BME280;43626;53.866;30.298;2024-02-21T05:09:29;1023.4;;;1.1;63.6
57799;BME280;43626;53.866;30.298;2024-02-21T05:14:43;1023.4;;;1.1;63.7
57799;BME280;43626;53.866;30.298;2024-02-21T05:19:27;1023.4;;;1.1;63.6
57799;BME280;43626;53.866;30.298;2024-02-21T05:24:35;1023.4;;;1.1;63.7
57799;BME280;43626;53.866;30.298;2024-02-21T05:29:45;1023.4;;;1.1;63.7
57799;BME280;43626;53.866;30.298;2024-02-21T05:34:17;1023.4;;;1.1;63.8
57799;BME280;43626;53.866;30.298;2024-02-21T05:39:37;1023.4;;;1.1;63.7
57799;BME280;43626;53.866;30.298;2024-02-21T05:45:01;1023.4;;;1.1;63.7
57799;BME280;43626;53.866;30.298;2024-02-21T05:49:47;1023.4;;;1.1;63.6
57799;BME280;43626;53.866;30.298;2024-02-21T05:54:47;1023.5;;;1.1;63.6
57799;BME280;43626;53.866;30.298;2024-02-21T05:59:45;1023.5;;;1.2;63.7
57799;BME280;43626;53.866;30.298;2024-02-21T06:04:49;1023.5;;;1.2;63.5
57799;BME280;43626;53.866;30.298;2024-02-21T06:09:37;1023.5;;;1.3;63.5
57799;BME280;43626;53.866;30.298;2024-02-21T06:14:47;1023.5;;;1.3;63.5
57799;BME280;43626;53.866;30.298;2024-02-21T06:19:59;1023.5;;;1.3;63.4
57799;BME280;43626;53.866;30.298;2024-02-21T06:24:59;1023.6;;;1.4;63.4
57799;BME280;43626;53.866;30.298;2024-02-21T06:29:35;1023.6;;;1.4;63.3
57799;BME280;43626;53.866;30.298;2024-02-21T06:34:59;1023.7;;;1.5;63.2
57799;BME280;43626;53.866;30.298;2024-02-21T06:39:35;1023.6;;;1.5;63.1
57799;BME280;43626;53.866;30.298;2024-02-21T06:44:45;1023.6;;;1.5;63
57799;BME280;43626;53.866;30.298;2024-02-21T06:49:11;1023.6;;;1.6;62.8
57799;BME280;43626;53.866;30.298;2024-02-21T06:54:11;1023.7;;;1.7;62.7
57799;BME280;43626;53.866;30.298;2024-02-21T06:59:11;1023.8;;;1.7;62.5
57799;BME280;43626;53.866;30.298;2024-02-21T07:04:19;1023.8;;;1.8;62.4
57799;BME280;43626;53.866;30.298;2024-02-21T07:09:19;1023.7;;;1.9;62.3
57799;BME280;43626;53.866;30.298;2024-02-21T07:14:19;1023.8;;;1.9;62.4
57799;BME280;43626;53.866;30.298;2024-02-21T07:20:01;1023.8;;;1.9;62.3
57799;BME280;43626;53.866;30.298;2024-02-21T07:24:47;1023.8;;;2;62.3
57799;BME280;43626;53.866;30.298;2024-02-21T07:30:01;1023.8;;;2;62.2
57799;BME280;43626;53.866;30.298;2024-02-21T07:34:47;1023.8;;;2;62.3
57799;BME280;43626;53.866;30.298;2024-02-21T07:39:49;1023.8;;;2;62.4
57799;BME280;43626;53.866;30.298;2024-02-21T07:44:23;1023.8;;;2.1;62.1
57799;BME280;43626;53.866;30.298;2024-02-21T07:49:13;1023.8;;;2.2;61.9
57799;BME280;43626;53.866;30.298;2024-02-21T07:55:01;1023.8;;;2.2;61.8
57799;BME280;43626;53.866;30.298;2024-02-21T08:00:01;1023.8;;;2.2;61.8
57799;BME280;43626;53.866;30.298;2024-02-21T08:04:27;1023.9;;;2.3;61.8
57799;BME280;43626;53.866;30.298;2024-02-21T08:10:01;1023.9;;;2.4;61.7
57799;BME280;43626;53.866;30.298;2024-02-21T08:14:49;1024;;;2.4;61.6
57799;BME280;43626;53.866;30.298;2024-02-21T08:19:47;1024;;;2.5;61.7
57799;BME280;43626;53.866;30.298;2024-02-21T08:24:53;1024;;;2.5;61.7
57799;BME280;43626;53.866;30.298;2024-02-21T08:29:29;1024.1;;;2.4;61.8
57799;BME280;43626;53.866;30.298;2024-02-21T08:34:23;1024.1;;;2.3;61.9
57799;BME280;43626;53.866;30.298;2024-02-21T08:39:25;1024.1;;;2.3;62.1
57799;BME280;43626;53.866;30.298;2024-02-21T08:44:23;1024.1;;;2.3;62.2
57799;BME280;43626;53.866;30.298;2024-02-21T08:49:11;1024.1;;;2.4;62.3
57799;BME280;43626;53.866;30.298;2024-02-21T08:54:41;1024.2;;;2.6;62
57799;BME280;43626;53.866;30.298;2024-02-21T08:59:29;1024.2;;;2.7;62
57799;BME280;43626;53.866;30.298;2024-02-21T09:05:01;1024.2;;;2.8;61.7
57799;BME280;43626;53.866;30.298;2024-02-21T09:09:57;1024.2;;;2.9;61.6
57799;BME280;43626;53.866;30.298;2024-02-21T09:14:27;1024.3;;;3;61.4
57799;BME280;43626;53.866;30.298;2024-02-21T09:19:29;1024.3;;;3.2;61.3
57799;BME280;43626;53.866;30.298;2024-02-21T09:24:49;1024.2;;;3.3;61.1
57799;BME280;43626;53.866;30.298;2024-02-21T09:29:13;1024.2;;;3.4;60.8
57799;BME280;43626;53.866;30.298;2024-02-21T09:34:31;1024.2;;;3.4;60.7
57799;BME280;43626;53.866;30.298;2024-02-21T09:40:01;1024.2;;;3.5;60.2
57799;BME280;43626;53.866;30.298;2024-02-21T09:44:39;1024.2;;;3.6;59.9
57799;BME280;43626;53.866;30.298;2024-02-21T09:49:49;1024.2;;;3.7;59.5
57799;BME280;43626;53.866;30.298;2024-02-21T09:54:19;1024.2;;;3.8;59.2
57799;BME280;43626;53.866;30.298;2024-02-21T09:59:49;1024.2;;;3.8;59.1
57799;BME280;43626;53.866;30.298;2024-02-21T10:04:27;1024.2;;;3.8;59
57799;BME280;43626;53.866;30.298;2024-02-21T10:09:23;1024.1;;;3.9;59.4
57799;BME280;43626;53.866;30.298;2024-02-21T10:14:49;1024.1;;;3.9;59.3
57799;BME280;43626;53.866;30.298;2024-02-21T10:19:31;1024.1;;;4;59.4
57799;BME280;43626;53.866;30.298;2024-02-21T10:24:33;1024.1;;;4;59.3
57799;BME280;43626;53.866;30.298;2024-02-21T10:29:11;1024.1;;;4.1;59
57799;BME280;43626;53.866;30.298;2024-02-21T10:34:21;1024.1;;;4;58.3
57799;BME280;43626;53.866;30.298;2024-02-21T10:40:01;1024.1;;;3.9;58.4
57799;BME280;43626;53.866;30.298;2024-02-21T10:45:01;1024.1;;;3.9;58.7
57799;BME280;43626;53.866;30.298;2024-02-21T10:50:02;1024.2;;;3.9;58.8
57799;BME280;43626;53.866;30.298;2024-02-21T10:54:59;1024.2;;;3.8;59.1
57799;BME280;43626;53.866;30.298;2024-02-21T11:00:01;1024.2;;;3.8;59.4
57799;BME280;43626;53.866;30.298;2024-02-21T11:04:51;1024.2;;;3.8;59.6
57799;BME280;43626;53.866;30.298;2024-02-21T11:09:31;1024.2;;;3.9;59.5
57799;BME280;43626;53.866;30.298;2024-02-21T11:15:04;1024.2;;;3.9;59.5
57799;BME280;43626;53.866;30.298;2024-02-21T11:19:24;1024.2;;;3.9;59.6
57799;BME280;43626;53.866;30.298;2024-02-21T11:25:06;1024.2;;;3.9;59.6
57799;BME280;43626;53.866;30.298;2024-02-21T11:29:22;1024.3;;;3.8;59.5
57799;BME280;43626;53.866;30.298;2024-02-21T11:34:54;1024.3;;;3.7;60
57799;BME280;43626;53.866;30.298;2024-02-21T11:39:11;1024.2;;;3.7;60.1
57799;BME280;43626;53.866;30.298;2024-02-21T11:44:11;1024.2;;;3.8;60.1
57799;BME280;43626;53.866;30.298;2024-02-21T11:49:45;1024.2;;;3.8;59.8
57799;BME280;43626;53.866;30.298;2024-02-21T11:54:31;1024.2;;;3.9;59.6
57799;BME280;43626;53.866;30.298;2024-02-21T11:59:31;1024.2;;;3.9;59.6
57799;BME280;43626;53.866;30.298;2024-02-21T12:04:19;1024.1;;;3.9;59.2
57799;BME280;43626;53.866;30.298;2024-02-21T12:09:49;1024.1;;;3.8;59.5
57799;BME280;43626;53.866;30.298;2024-02-21T12:15:03;1024.1;;;3.7;59.5
57799;BME280;43626;53.866;30.298;2024-02-21T12:20:01;1024.2;;;3.6;59.6
57799;BME280;43626;53.866;30.298;2024-02-21T12:24:31;1024.2;;;3.6;59.6
57799;BME280;43626;53.866;30.298;2024-02-21T12:29:41;1024.2;;;3.5;59.8
57799;BME280;43626;53.866;30.298;2024-02-21T12:34:59;1024.3;;;3.5;59.5
57799;BME280;43626;53.866;30.298;2024-02-21T12:39:49;1024.3;;;3.3;60
57799;BME280;43626;53.866;30.298;2024-02-21T12:44:41;1024.3;;;3.1;60.5
57799;BME280;43626;53.866;30.298;2024-02-21T12:49:41;1024.3;;;3;61
57799;BME280;43626;53.866;30.298;2024-02-21T12:54:31;1024.3;;;3;61.1
57799;BME280;43626;53.866;30.298;2024-02-21T13:00:01;1024.4;;;2.9;61.3
57799;BME280;43626;53.866;30.298;2024-02-21T13:04:39;1024.3;;;2.8;61.6
57799;BME280;43626;53.866;30.298;2024-02-21T13:10:01;1024.3;;;2.9;61.7
57799;BME280;43626;53.866;30.298;2024-02-21T13:14:47;1024.3;;;2.9;61.4
57799;BME280;43626;53.866;30.298;2024-02-21T13:19:31;1024.3;;;3;61.4
57799;BME280;43626;53.866;30.298;2024-02-21T13:24:11;1024.3;;;3.1;61.3
57799;BME280;43626;53.866;30.298;2024-02-21T13:29:11;1024.2;;;3.2;61.4
57799;BME280;43626;53.866;30.298;2024-02-21T13:34:11;1024.2;;;3.3;61
57799;BME280;43626;53.866;30.298;2024-02-21T13:39:11;1024.2;;;3.4;60.8
57799;BME280;43626;53.866;30.298;2024-02-21T13:44:11;1024.3;;;3.4;60.8
57799;BME280;43626;53.866;30.298;2024-02-21T13:49:47;1024.3;;;3.4;60.7
57799;BME280;43626;53.866;30.298;2024-02-21T13:54:53;1024.3;;;3.3;60.7
57799;BME280;43626;53.866;30.298;2024-02-21T13:59:27;1024.3;;;3.3;60.7
57799;BME280;43626;53.866;30.298;2024-02-21T14:05:03;1024.3;;;3.1;61.4
57799;BME280;43626;53.866;30.298;2024-02-21T14:09:49;1024.3;;;3.1;61.4
57799;BME280;43626;53.866;30.298;2024-02-21T14:15:03;1024.3;;;3.1;61.7
57799;BME280;43626;53.866;30.298;2024-02-21T14:19:23;1024.3;;;3.1;61.7
57799;BME280;43626;53.866;30.298;2024-02-21T14:24:51;1024.2;;;3.1;61.8
57799;BME280;43626;53.866;30.298;2024-02-21T14:30:03;1024.3;;;3.1;61.8
57799;BME280;43626;53.866;30.298;2024-02-21T14:35:03;1024.3;;;3.1;61.8
57799;BME280;43626;53.866;30.298;2024-02-21T14:39:11;1024.3;;;3.1;61.8
57799;BME280;43626;53.866;30.298;2024-02-21T14:44:47;1024.3;;;3.1;61.9
57799;BME280;43626;53.866;30.298;2024-02-21T14:50:01;1024.2;;;3.1;62
57799;BME280;43626;53.866;30.298;2024-02-21T14:54:29;1024.2;;;3;62.1
57799;BME280;43626;53.866;30.298;2024-02-21T15:00:01;1024.3;;;3;62.3
57799;BME280;43626;53.866;30.298;2024-02-21T15:04:11;1024.3;;;2.9;62.5
57799;BME280;43626;53.866;30.298;2024-02-21T15:09:23;1024.3;;;2.9;62.5
57799;BME280;43626;53.866;30.298;2024-02-21T15:14:21;1024.3;;;2.8;62.7
57799;BME280;43626;53.866;30.298;2024-02-21T15:19:23;1024.3;;;2.8;62.8
57799;BME280;43626;53.866;30.298;2024-02-21T15:24:25;1024.3;;;2.9;62.8
57799;BME280;43626;53.866;30.298;2024-02-21T15:29:31;1024.3;;;2.9;62.9
57799;BME280;43626;53.866;30.298;2024-02-21T15:34:33;1024.3;;;2.9;63
57799;BME280;43626;53.866;30.298;2024-02-21T15:40:01;1024.3;;;2.9;63
57799;BME280;43626;53.866;30.298;2024-02-21T15:44:15;1024.4;;;2.9;63.1
57799;BME280;43626;53.866;30.298;2024-02-21T15:49:11;1024.4;;;2.9;63.1
57799;BME280;43626;53.866;30.298;2024-02-21T15:54:19;1024.4;;;2.8;63.3
57799;BME280;43626;53.866;30.298;2024-02-21T15:59:41;1024.3;;;2.7;63.6
57799;BME280;43626;53.866;30.298;2024-02-21T16:04:51;1024.3;;;2.7;63.6
57799;BME280;43626;53.866;30.298;2024-02-21T16:09:21;1024.2;;;2.7;63.6
57799;BME280;43626;53.866;30.298;2024-02-21T16:14:39;1024.3;;;2.7;63.8
57799;BME280;43626;53.866;30.298;2024-02-21T16:19:14;1024.3;;;2.7;63.8
57799;BME280;43626;53.866;30.298;2024-02-21T16:25:03;1024.3;;;2.7;63.8
57799;BME280;43626;53.866;30.298;2024-02-21T16:29:13;1024.3;;;2.7;63.8
57799;BME280;43626;53.866;30.298;2024-02-21T16:35:03;1024.3;;;2.7;63.8
57799;BME280;43626;53.866;30.298;2024-02-21T16:39:11;1024.3;;;2.7;63.8
57799;BME280;43626;53.866;30.298;2024-02-21T16:44:25;1024.3;;;2.7;63.9
57799;BME280;43626;53.866;30.298;2024-02-21T16:49:11;1024.3;;;2.7;64
57799;BME280;43626;53.866;30.298;2024-02-21T16:54:43;1024.2;;;2.6;64.2
57799;BME280;43626;53.866;30.298;2024-02-21T16:59:19;1024.2;;;2.6;64.4
57799;BME280;43626;53.866;30.298;2024-02-21T17:04:43;1024.2;;;2.5;64.6
57799;BME280;43626;53.866;30.298;2024-02-21T17:09:27;1024.2;;;2.5;64.8
57799;BME280;43626;53.866;30.298;2024-02-21T17:14:49;1024.2;;;2.5;65
57799;BME280;43626;53.866;30.298;2024-02-21T17:19:47;1024.2;;;2.4;65.2
57799;BME280;43626;53.866;30.298;2024-02-21T17:24:31;1024.2;;;2.5;65.2
57799;BME280;43626;53.866;30.298;2024-02-21T17:29:19;1024.3;;;2.5;65.2
57799;BME280;43626;53.866;30.298;2024-02-21T17:34:43;1024.2;;;2.5;65.1
57799;BME280;43626;53.866;30.298;2024-02-21T17:39:53;1024.2;;;2.6;65.1
57799;BME280;43626;53.866;30.298;2024-02-21T17:44:33;1024.2;;;2.6;65
57799;BME280;43626;53.866;30.298;2024-02-21T17:49:53;1024.1;;;2.6;65
57799;BME280;43626;53.866;30.298;2024-02-21T17:54:47;1024.1;;;2.6;65.2
57799;BME280;43626;53.866;30.298;2024-02-21T18:00:03;1024;;;2.5;65.5
57799;BME280;43626;53.866;30.298;2024-02-21T18:04:37;1024;;;2.5;65.5
57799;BME280;43626;53.866;30.298;2024-02-21T18:09:53;1024;;;2.5;65.7
57799;BME280;43626;53.866;30.298;2024-02-21T18:14:37;1023.9;;;2.5;66
57799;BME280;43626;53.866;30.298;2024-02-21T18:19:33;1023.9;;;2.4;66.2
57799;BME280;43626;53.866;30.298;2024-02-21T18:24:37;1023.9;;;2.5;66.2
57799;BME280;43626;53.866;30.298;2024-02-21T18:29:25;1023.9;;;2.5;66
57799;BME280;43626;53.866;30.298;2024-02-21T18:35:03;1023.8;;;2.5;66.1
57799;BME280;43626;53.866;30.298;2024-02-21T18:39:43;1023.8;;;2.5;66.1
57799;BME280;43626;53.866;30.298;2024-02-21T18:44:47;1023.7;;;2.5;66.1
57799;BME280;43626;53.866;30.298;2024-02-21T18:50:03;1023.6;;;2.6;66.2
57799;BME280;43626;53.866;30.298;2024-02-21T18:55:03;1023.6;;;2.5;66.2
57799;BME280;43626;53.866;30.298;2024-02-21T18:59:11;1023.6;;;2.5;66.2
57799;BME280;43626;53.866;30.298;2024-02-21T19:04:33;1023.6;;;2.5;66.4
57799;BME280;43626;53.866;30.298;2024-02-21T19:10:03;1023.5;;;2.4;66.8
57799;BME280;43626;53.866;30.298;2024-02-21T19:14:19;1023.5;;;2.4;66.8
57799;BME280;43626;53.866;30.298;2024-02-21T19:19:11;1023.4;;;2.4;67
57799;BME280;43626;53.866;30.298;2024-02-21T19:24:45;1023.4;;;2.4;67.2
57799;BME280;43626;53.866;30.298;2024-02-21T19:29:33;1023.4;;;2.4;67.2
57799;BME280;43626;53.866;30.298;2024-02-21T19:35:03;1023.3;;;2.4;67.3
57799;BME280;43626;53.866;30.298;2024-02-21T19:39:37;1023.3;;;2.4;67.3
57799;BME280;43626;53.866;30.298;2024-02-21T19:44:49;1023.3;;;2.4;67.5
57799;BME280;43626;53.866;30.298;2024-02-21T19:54:47;1023.3;;;2.3;67.9
57799;BME280;43626;53.866;30.298;2024-02-21T19:59:19;1023.3;;;2.3;68.1
57799;BME280;43626;53.866;30.298;2024-02-21T20:04:27;1023.3;;;2.3;68.4
57799;BME280;43626;53.866;30.298;2024-02-21T20:09:19;1023.3;;;2.3;68.4
57799;BME280;43626;53.866;30.298;2024-02-21T20:14:11;1023.2;;;2.3;68.6
57799;BME280;43626;53.866;30.298;2024-02-21T20:19:19;1023.3;;;2.3;68.8
57799;BME280;43626;53.866;30.298;2024-02-21T20:24:27;1023.3;;;2.3;68.6
57799;BME280;43626;53.866;30.298;2024-02-21T20:30:03;1023.2;;;2.3;68.7
57799;BME280;43626;53.866;30.298;2024-02-21T20:34:19;1023.2;;;2.3;68.7
57799;BME280;43626;53.866;30.298;2024-02-21T20:40:03;1023.2;;;2.3;69
57799;BME280;43626;53.866;30.298;2024-02-21T20:44:33;1023.2;;;2.3;69
57799;BME280;43626;53.866;30.298;2024-02-21T20:49:53;1023.1;;;2.2;69.1
57799;BME280;43626;53.866;30.298;2024-02-21T20:54:11;1023.1;;;2.1;69.6
57799;BME280;43626;53.866;30.298;2024-02-21T20:59:27;1023.1;;;2.1;70.1
57799;BME280;43626;53.866;30.298;2024-02-21T21:05:01;1023;;;2.1;70.2
57799;BME280;43626;53.866;30.298;2024-02-21T21:09:43;1023;;;2.1;70.3
57799;BME280;43626;53.866;30.298;2024-02-21T21:14:35;1023;;;2.2;70.2
57799;BME280;43626;53.866;30.298;2024-02-21T21:20:01;1023.1;;;2.2;70.2
57799;BME280;43626;53.866;30.298;2024-02-21T21:24:12;1023.1;;;2.2;70.3
57799;BME280;43626;53.866;30.298;2024-02-21T21:29:45;1023.1;;;2.2;70.3
57799;BME280;43626;53.866;30.298;2024-02-21T21:34:27;1023.1;;;2.2;70.3
57799;BME280;43626;53.866;30.298;2024-02-21T21:39:17;1023.1;;;2.2;70.3
57799;BME280;43626;53.866;30.298;2024-02-21T21:44:11;1023;;;2.3;70.2
57799;BME280;43626;53.866;30.298;2024-02-21T21:49:21;1023;;;2.3;70.3
57799;BME280;43626;53.866;30.298;2024-02-21T21:54:51;1023;;;2.3;70.4
57799;BME280;43626;53.866;30.298;2024-02-21T21:59:11;1022.9;;;2.3;70.4
57799;BME280;43626;53.866;30.298;2024-02-21T22:05:01;1022.9;;;2.3;70.5
57799;BME280;43626;53.866;30.298;2024-02-21T22:09:11;1022.9;;;2.3;70.5
57799;BME280;43626;53.866;30.298;2024-02-21T22:15:01;1022.8;;;2.3;70.6
57799;BME280;43626;53.866;30.298;2024-02-21T22:19:37;1022.8;;;2.3;70.7
57799;BME280;43626;53.866;30.298;2024-02-21T22:24:51;1022.8;;;2.3;70.5
57799;BME280;43626;53.866;30.298;2024-02-21T22:29:12;1022.8;;;2.4;70.5
57799;BME280;43626;53.866;30.298;2024-02-21T22:34:43;1022.7;;;2.4;70.4
57799;BME280;43626;53.866;30.298;2024-02-21T22:40:03;1022.6;;;2.4;70.6
57799;BME280;43626;53.866;30.298;2024-02-21T22:45:03;1022.6;;;2.4;70.7
57799;BME280;43626;53.866;30.298;2024-02-21T22:49:19;1022.6;;;2.4;70.7
57799;BME280;43626;53.866;30.298;2024-02-21T22:55:03;1022.5;;;2.3;71
57799;BME280;43626;53.866;30.298;2024-02-21T23:00:03;1022.5;;;2.2;71.3
57799;BME280;43626;53.866;30.298;2024-02-21T23:04:49;1022.5;;;2.2;71.3
57799;BME280;43626;53.866;30.298;2024-02-21T23:10:05;1022.4;;;2.2;71.7
57799;BME280;43626;53.866;30.298;2024-02-21T23:14:19;1022.4;;;2.2;71.7
57799;BME280;43626;53.866;30.298;2024-02-21T23:19:11;1022.3;;;2.2;71.8
57799;BME280;43626;53.866;30.298;2024-02-21T23:24:19;1022.3;;;2.3;71.8
57799;BME280;43626;53.866;30.298;2024-02-21T23:29:33;1022.2;;;2.3;71.7
57799;BME280;43626;53.866;30.298;2024-02-21T23:34:11;1022.2;;;2.2;71.9
57799;BME280;43626;53.866;30.298;2024-02-21T23:39:43;1022.2;;;2.2;72
57799;BME280;43626;53.866;30.298;2024-02-21T23:44:29;1022.2;;;2.2;72.2
57799;BME280;43626;53.866;30.298;2024-02-21T23:50:05;1022.1;;;2.2;72.6
57799;BME280;43626;53.866;30.298;2024-02-21T23:54:49;1022.1;;;2.2;72.6
57799;BME280;43626;53.866;30.298;2024-02-21T23:59:19;1022;;;2.1;72.7
